This is the latest recevied weather packets stored in our database for station/object DB0PDF-L4. If no packets are shown the sender has not sent any weather packets the latest 10 day(s).
| Time | Temp. | Humidity | Pressure | Rain* | Wind** | Luminosity | Snow |
|---|---|---|---|---|---|---|---|
| 1777830151 | 20° C | 51% | 1000 hPa | - | - | - | - |
| 1777829250 | 19.44° C | 51% | 1000 hPa | - | - | - | - |
| 1777828349 | 20° C | 52% | 1000 hPa | - | - | - | - |
| 1777827448 | 20.56° C | 52% | 1000 hPa | - | - | - | - |
| 1777826547 | 21.67° C | 53% | 1000 hPa | - | - | - | - |
| 1777825645 | 23.33° C | 45% | 1000 hPa | - | - | - | - |
| 1777824744 | 25° C | 39% | 1000 hPa | - | - | - | - |
| 1777823843 | 26.11° C | 33% | 999 hPa | - | - | - | - |
| 1777822942 | 26.67° C | 31% | 999 hPa | - | - | - | - |
| 1777822041 | 27.22° C | 30% | 999 hPa | - | - | - | - |
| 1777821140 | 27.78° C | 29% | 999 hPa | - | - | - | - |
| 1777820239 | 28.89° C | 26% | 999 hPa | - | - | - | - |
| 1777819338 | 30° C | 24% | 999 hPa | - | - | - | - |
| 1777818436 | 31.11° C | 24% | 999 hPa | - | - | - | - |
| 1777817535 | 31.11° C | 24% | 999 hPa | - | - | - | - |
| 1777816634 | 31.11° C | 25% | 999 hPa | - | - | - | - |
| 1777815733 | 31.11° C | 24% | 999 hPa | - | - | - | - |
| 1777814832 | 31.11° C | 24% | 999 hPa | - | - | - | - |
| 1777813931 | 30.56° C | 25% | 999 hPa | - | - | - | - |
| 1777813030 | 30.56° C | 28% | 1000 hPa | - | - | - | - |
| 1777812129 | 31.11° C | 28% | 1000 hPa | - | - | - | - |
| 1777811228 | 30.56° C | 29% | 1000 hPa | - | - | - | - |
| 1777810327 | 30.56° C | 30% | 1000 hPa | - | - | - | - |
| 1777809425 | 30° C | 31% | 1000 hPa | - | - | - | - |
| 1777808524 | 29.44° C | 32% | 1000 hPa | - | - | - | - |
* Rain since midnight (hover to see other rain measurements)
** Current wind speed in m/s (hover to see current wind gust speed)